createdAt,value
2019-06-26T00:02:24.206Z,24.90
2019-06-26T00:04:53.195Z,24.90
2019-06-26T00:07:22.240Z,24.90
2019-06-26T00:09:51.323Z,24.90
2019-06-26T00:12:20.701Z,24.80
2019-06-26T00:14:49.846Z,24.90
2019-06-26T00:17:19.030Z,24.80
2019-06-26T00:19:48.040Z,24.80
2019-06-26T00:22:17.082Z,24.80
2019-06-26T00:24:46.048Z,24.70
2019-06-26T00:27:15.131Z,24.70
2019-06-26T00:29:44.127Z,24.70
2019-06-26T00:32:13.139Z,24.70
2019-06-26T00:34:42.057Z,24.60
2019-06-26T00:37:11.149Z,24.60
2019-06-26T00:39:40.270Z,24.60
2019-06-26T00:42:09.334Z,24.60
2019-06-26T00:44:38.388Z,24.50
2019-06-26T00:47:07.514Z,24.50
2019-06-26T00:49:36.710Z,24.60
2019-06-26T00:52:05.843Z,24.50
2019-06-26T00:54:34.822Z,24.50
2019-06-26T00:57:03.889Z,24.50
2019-06-26T00:59:32.795Z,24.30
2019-06-26T01:02:01.901Z,24.30
2019-06-26T01:04:34.662Z,24.30
2019-06-26T01:07:03.830Z,24.30
2019-06-26T01:09:32.833Z,24.20
2019-06-26T01:12:01.916Z,24.20
2019-06-26T01:14:30.995Z,24.10
2019-06-26T01:16:59.922Z,24.10
2019-06-26T01:19:29.155Z,24.10
2019-06-26T01:21:58.217Z,24.10
2019-06-26T01:24:27.298Z,24.10
2019-06-26T01:26:56.521Z,24.10
2019-06-26T01:29:25.554Z,24.10
2019-06-26T01:31:54.464Z,24.10
2019-06-26T01:34:23.599Z,24.10
2019-06-26T01:36:52.637Z,24.00
2019-06-26T01:39:21.553Z,24.00
2019-06-26T01:41:50.475Z,23.90
2019-06-26T01:44:19.428Z,23.90
2019-06-26T01:46:48.440Z,23.90
2019-06-26T01:49:17.585Z,23.90
2019-06-26T01:51:46.691Z,23.90
2019-06-26T01:54:15.663Z,23.90
2019-06-26T01:56:44.650Z,23.90
2019-06-26T01:59:13.673Z,23.90
2019-06-26T02:01:42.586Z,23.90
2019-06-26T02:04:11.682Z,23.90
2019-06-26T02:06:40.747Z,23.90
2019-06-26T02:09:09.871Z,23.90
2019-06-26T02:11:38.807Z,23.90
2019-06-26T02:14:07.799Z,23.90
2019-06-26T02:16:36.864Z,23.90
2019-06-26T02:19:07.331Z,23.90
2019-06-26T02:21:36.402Z,23.90
2019-06-26T02:24:05.494Z,23.80
2019-06-26T02:26:34.571Z,23.80
2019-06-26T02:29:03.702Z,23.70
2019-06-26T02:31:32.756Z,23.70
2019-06-26T02:34:01.901Z,23.70
2019-06-26T02:36:30.914Z,23.70
2019-06-26T02:38:59.987Z,23.70
2019-06-26T02:41:29.117Z,23.70
2019-06-26T02:43:58.265Z,23.70
2019-06-26T02:46:27.402Z,23.70
2019-06-26T02:48:56.444Z,23.70
2019-06-26T02:51:25.514Z,23.70
2019-06-26T02:53:54.511Z,23.70
2019-06-26T02:56:23.678Z,23.70
2019-06-26T02:58:52.588Z,23.60
2019-06-26T03:01:21.659Z,23.60
2019-06-26T03:03:50.750Z,23.60
2019-06-26T03:06:19.895Z,23.60
2019-06-26T03:08:48.968Z,23.60
2019-06-26T03:11:18.142Z,23.50
2019-06-26T03:13:47.714Z,23.50
2019-06-26T03:16:16.851Z,23.50
2019-06-26T03:18:45.944Z,23.50
2019-06-26T03:21:14.923Z,23.40
2019-06-26T03:23:44.049Z,23.40
2019-06-26T03:26:13.109Z,23.40
2019-06-26T03:28:42.103Z,23.40
2019-06-26T03:31:11.252Z,23.40
2019-06-26T03:33:40.306Z,23.30
2019-06-26T03:36:09.446Z,23.40
2019-06-26T03:38:38.645Z,23.30
2019-06-26T03:41:27.034Z,23.30
2019-06-26T03:43:55.951Z,23.30
2019-06-26T03:46:25.006Z,23.30
2019-06-26T03:48:54.108Z,23.30
2019-06-26T03:51:23.157Z,23.30
2019-06-26T03:53:52.245Z,23.30
2019-06-26T03:56:21.300Z,23.30
2019-06-26T03:58:50.303Z,23.20
2019-06-26T04:01:19.314Z,23.20
2019-06-26T04:03:48.381Z,23.20
2019-06-26T04:06:17.390Z,23.20
2019-06-26T04:08:46.368Z,23.20
2019-06-26T04:11:15.414Z,23.20
2019-06-26T04:13:44.478Z,23.20
2019-06-26T04:16:13.449Z,23.20
2019-06-26T04:18:42.469Z,23.20
2019-06-26T04:21:11.454Z,23.20
2019-06-26T04:23:40.448Z,23.20
2019-06-26T04:26:09.428Z,23.10
2019-06-26T04:28:38.342Z,23.20
2019-06-26T04:31:07.438Z,23.20
2019-06-26T04:33:36.340Z,23.20
2019-06-26T04:36:05.411Z,23.20
2019-06-26T04:38:34.477Z,23.30
2019-06-26T04:41:03.531Z,23.30
2019-06-26T04:43:32.659Z,23.30
2019-06-26T04:46:01.768Z,23.30
2019-06-26T04:48:30.825Z,23.30
2019-06-26T04:50:59.981Z,23.30
2019-06-26T04:53:28.902Z,23.40
2019-06-26T04:55:57.831Z,23.40
2019-06-26T04:58:26.959Z,23.40
2019-06-26T05:00:56.046Z,23.40
2019-06-26T05:03:25.026Z,23.50
2019-06-26T05:05:54.005Z,23.50
2019-06-26T05:08:23.018Z,23.50
2019-06-26T05:10:52.133Z,23.50
2019-06-26T05:13:21.159Z,23.50
2019-06-26T05:15:50.206Z,23.50
2019-06-26T05:18:19.130Z,23.50
2019-06-26T05:20:48.208Z,23.60
2019-06-26T05:23:17.275Z,23.60
2019-06-26T05:25:46.326Z,23.60
2019-06-26T05:28:15.374Z,23.60
2019-06-26T05:30:44.381Z,23.60
2019-06-26T05:33:13.477Z,23.70
2019-06-26T05:35:42.498Z,23.70
2019-06-26T05:38:11.569Z,23.70
2019-06-26T05:40:40.485Z,23.70
2019-06-26T05:43:09.578Z,23.80
2019-06-26T05:45:38.714Z,23.80
2019-06-26T05:48:07.696Z,23.80
2019-06-26T05:50:36.738Z,23.80
2019-06-26T05:53:05.810Z,23.80
2019-06-26T05:55:34.899Z,23.90
2019-06-26T05:58:03.869Z,23.90
2019-06-26T06:00:32.939Z,23.90
2019-06-26T06:03:01.955Z,23.90
2019-06-26T06:05:31.026Z,24.00
2019-06-26T06:08:00.046Z,24.00
2019-06-26T06:10:29.158Z,24.00
2019-06-26T06:12:58.218Z,24.00
2019-06-26T06:15:27.220Z,24.10
2019-06-26T06:17:56.348Z,24.10
2019-06-26T06:20:35.167Z,24.10
2019-06-26T06:23:04.277Z,24.10
2019-06-26T06:25:33.325Z,24.10
2019-06-26T06:28:02.497Z,24.20
2019-06-26T06:30:32.672Z,24.20
2019-06-26T06:33:01.798Z,24.20
2019-06-26T06:35:30.849Z,24.20
2019-06-26T06:37:59.890Z,24.30
2019-06-26T06:40:28.953Z,24.30
2019-06-26T06:42:58.110Z,24.30
2019-06-26T06:45:27.450Z,24.30
2019-06-26T06:47:56.530Z,24.30
2019-06-26T06:50:25.516Z,24.30
2019-06-26T06:52:54.684Z,24.30
2019-06-26T06:55:23.729Z,24.40
2019-06-26T06:57:52.813Z,24.40
2019-06-26T07:00:22.368Z,24.40
2019-06-26T07:02:51.425Z,24.40
2019-06-26T07:05:20.500Z,24.50
2019-06-26T07:07:49.567Z,24.40
2019-06-26T07:10:19.862Z,24.50
2019-06-26T07:12:48.914Z,24.50
2019-06-26T07:15:19.178Z,24.50
2019-06-26T07:17:48.257Z,24.50
2019-06-26T07:20:17.745Z,24.50
2019-06-26T07:22:46.770Z,24.60
2019-06-26T07:25:16.125Z,24.60
2019-06-26T07:27:45.752Z,24.60
2019-06-26T07:30:15.195Z,24.60
2019-06-26T07:32:44.319Z,24.70
2019-06-26T07:35:13.491Z,24.70
2019-06-26T07:37:42.476Z,24.70
2019-06-26T07:40:11.899Z,24.80
2019-06-26T07:42:40.901Z,24.80
2019-06-26T07:45:10.224Z,24.80
2019-06-26T07:47:43.588Z,24.80
2019-06-26T07:50:11.099Z,24.80
2019-06-26T07:52:40.074Z,24.80
2019-06-26T07:55:12.107Z,24.90
2019-06-26T07:57:40.359Z,24.90
2019-06-26T08:00:09.496Z,24.90
2019-06-26T08:02:38.540Z,24.90
2019-06-26T08:05:08.132Z,25.00
2019-06-26T08:07:37.250Z,25.00
2019-06-26T08:10:07.100Z,25.00
2019-06-26T08:12:36.188Z,25.00
2019-06-26T08:15:05.924Z,25.00
2019-06-26T08:17:35.059Z,25.10
2019-06-26T08:20:04.563Z,25.10
2019-06-26T08:22:33.519Z,25.10
2019-06-26T08:25:02.583Z,25.10
2019-06-26T08:27:31.689Z,25.10
2019-06-26T08:30:00.743Z,25.20
2019-06-26T08:32:29.741Z,25.20
2019-06-26T08:34:58.759Z,25.20
2019-06-26T08:37:27.797Z,25.30
2019-06-26T08:39:56.914Z,25.30
2019-06-26T08:42:25.946Z,25.30
2019-06-26T08:44:54.978Z,25.30
2019-06-26T08:47:23.991Z,25.40
2019-06-26T08:49:53.011Z,25.40
2019-06-26T08:52:22.360Z,25.40
2019-06-26T08:54:51.382Z,25.50
2019-06-26T08:57:20.560Z,25.50
2019-06-26T08:59:49.479Z,25.50
2019-06-26T09:02:18.477Z,25.50
2019-06-26T09:04:47.524Z,25.50
2019-06-26T09:07:16.574Z,25.50
2019-06-26T09:09:45.543Z,25.50
2019-06-26T09:12:14.519Z,25.60
2019-06-26T09:14:43.511Z,25.60
2019-06-26T09:17:12.502Z,25.60
2019-06-26T09:19:41.627Z,25.70
2019-06-26T09:22:11.151Z,25.80
2019-06-26T09:24:40.131Z,25.80
2019-06-26T09:27:09.233Z,25.80
2019-06-26T09:29:38.265Z,25.90
2019-06-26T09:32:07.246Z,26.00
2019-06-26T09:34:36.230Z,26.00
2019-06-26T09:37:05.294Z,26.00
2019-06-26T09:39:34.302Z,26.20
2019-06-26T09:42:03.339Z,26.30
2019-06-26T09:44:32.371Z,26.30
2019-06-26T09:47:01.541Z,26.30
2019-06-26T09:49:30.657Z,26.40
2019-06-26T09:51:59.637Z,26.50
2019-06-26T09:54:28.681Z,26.40
2019-06-26T09:56:57.694Z,26.40
2019-06-26T09:59:26.742Z,26.40
2019-06-26T10:01:55.835Z,26.50
2019-06-26T10:04:24.737Z,26.60
2019-06-26T10:06:53.918Z,26.70
2019-06-26T10:09:23.079Z,26.80
2019-06-26T10:11:52.260Z,26.90
2019-06-26T10:14:21.395Z,27.00
2019-06-26T10:16:50.469Z,27.00
2019-06-26T10:19:19.480Z,27.00
2019-06-26T10:21:48.527Z,27.10
2019-06-26T10:24:17.562Z,27.20
2019-06-26T10:26:46.559Z,27.20
2019-06-26T10:29:15.602Z,27.30
2019-06-26T10:31:44.779Z,27.30
2019-06-26T10:34:13.771Z,27.30
2019-06-26T10:36:42.861Z,27.20
2019-06-26T10:39:11.981Z,27.20
2019-06-26T10:41:41.087Z,27.10
2019-06-26T10:44:10.138Z,27.10
2019-06-26T10:46:39.214Z,27.10
2019-06-26T10:49:08.274Z,27.10
2019-06-26T10:51:37.258Z,27.10
2019-06-26T10:54:06.331Z,27.20
2019-06-26T10:56:35.467Z,27.10
2019-06-26T10:59:04.549Z,27.10
2019-06-26T11:01:33.611Z,27.20
2019-06-26T11:04:02.663Z,27.10
2019-06-26T11:06:31.715Z,27.00
2019-06-26T11:09:00.698Z,27.10
2019-06-26T11:11:29.688Z,27.00
2019-06-26T11:13:58.657Z,27.10
2019-06-26T11:16:27.746Z,27.10
2019-06-26T11:18:56.730Z,27.20
2019-06-26T11:21:25.706Z,27.40
2019-06-26T11:23:54.703Z,27.40
2019-06-26T11:26:23.773Z,27.40
2019-06-26T11:28:52.825Z,27.40
2019-06-26T11:31:21.805Z,27.30
2019-06-26T11:33:50.758Z,27.50
2019-06-26T11:36:19.879Z,27.60
2019-06-26T11:38:48.938Z,27.70
2019-06-26T11:41:18.005Z,27.80
2019-06-26T11:43:47.140Z,27.80
2019-06-26T11:46:16.224Z,27.70
2019-06-26T11:48:45.354Z,27.80
2019-06-26T11:51:14.388Z,27.80
2019-06-26T11:53:43.386Z,27.70
2019-06-26T11:56:13.029Z,27.90
2019-06-26T11:58:42.036Z,27.90
2019-06-26T12:01:11.143Z,28.00
2019-06-26T12:03:40.305Z,28.10
2019-06-26T12:06:18.301Z,28.20
2019-06-26T12:08:39.938Z,28.30
2019-06-26T12:11:09.005Z,28.40
2019-06-26T12:13:37.986Z,28.40
2019-06-26T12:16:06.920Z,28.60
2019-06-26T12:18:35.962Z,28.60
2019-06-26T12:21:05.170Z,28.70
2019-06-26T12:23:34.255Z,28.70
2019-06-26T12:26:03.247Z,28.80
2019-06-26T12:28:32.321Z,28.80
2019-06-26T12:31:01.338Z,28.90
2019-06-26T12:33:30.325Z,29.00
2019-06-26T12:35:59.390Z,29.00
2019-06-26T12:38:28.482Z,29.00
2019-06-26T12:40:57.484Z,29.10
2019-06-26T12:43:26.596Z,29.20
2019-06-26T12:45:55.726Z,29.20
2019-06-26T12:48:24.706Z,29.30
2019-06-26T12:50:53.709Z,29.30
2019-06-26T12:53:22.771Z,29.40
2019-06-26T12:55:51.873Z,29.40
2019-06-26T12:58:20.799Z,29.40
2019-06-26T13:00:49.847Z,29.50
2019-06-26T13:03:18.912Z,29.50
2019-06-26T13:05:47.892Z,29.60
2019-06-26T13:08:16.844Z,29.70
2019-06-26T13:10:50.202Z,29.80
2019-06-26T13:13:16.643Z,29.70
2019-06-26T13:15:45.773Z,29.70
2019-06-26T13:18:14.751Z,29.80
2019-06-26T13:20:52.993Z,29.90
2019-06-26T13:23:14.993Z,29.90
2019-06-26T13:25:44.150Z,29.80
2019-06-26T13:28:13.531Z,29.90
2019-06-26T13:30:42.619Z,29.90
2019-06-26T13:33:11.673Z,30.00
2019-06-26T13:35:40.741Z,30.10
2019-06-26T13:38:09.820Z,30.30
2019-06-26T13:40:41.096Z,30.40
2019-06-26T13:43:09.508Z,30.40
2019-06-26T13:45:38.566Z,30.40
2019-06-26T13:48:07.705Z,30.50
2019-06-26T13:50:36.786Z,30.60
2019-06-26T13:53:05.761Z,30.70
2019-06-26T13:55:34.681Z,30.70
2019-06-26T13:58:03.694Z,30.70
2019-06-26T14:00:51.892Z,30.60
2019-06-26T14:03:20.810Z,30.60
2019-06-26T14:05:49.821Z,30.70
2019-06-26T14:08:18.820Z,30.80
2019-06-26T14:10:47.934Z,30.90
2019-06-26T14:13:16.951Z,31.00
2019-06-26T14:15:45.934Z,31.00
2019-06-26T14:18:15.274Z,31.10
2019-06-26T14:20:44.224Z,31.20
2019-06-26T14:23:13.224Z,31.40
2019-06-26T14:25:42.256Z,31.50
2019-06-26T14:28:11.311Z,31.60
2019-06-26T14:30:40.576Z,31.80
2019-06-26T14:33:09.577Z,32.10
2019-06-26T14:35:38.487Z,32.30
2019-06-26T14:38:07.567Z,32.40
2019-06-26T14:40:36.536Z,32.50
2019-06-26T14:43:05.577Z,32.70
2019-06-26T14:45:34.504Z,32.90
2019-06-26T14:48:03.573Z,33.10
2019-06-26T14:50:32.661Z,33.30
2019-06-26T14:53:01.711Z,33.40
2019-06-26T14:55:30.783Z,33.40
2019-06-26T14:57:59.770Z,33.50
2019-06-26T15:00:28.819Z,33.70
2019-06-26T15:02:57.856Z,33.80
2019-06-26T15:05:26.832Z,33.80
2019-06-26T15:08:15.393Z,33.70
2019-06-26T15:10:44.560Z,33.90
2019-06-26T15:13:13.539Z,33.90
2019-06-26T15:15:42.609Z,34.00
2019-06-26T15:18:12.057Z,34.20
2019-06-26T15:20:41.135Z,34.30
2019-06-26T15:23:10.225Z,34.30
2019-06-26T15:25:39.350Z,34.40
2019-06-26T15:28:10.449Z,34.40
2019-06-26T15:30:39.197Z,34.40
2019-06-26T15:33:08.401Z,34.40
2019-06-26T15:35:37.459Z,34.40
2019-06-26T15:38:08.359Z,34.50
2019-06-26T15:40:38.585Z,34.50
2019-06-26T15:43:07.590Z,34.60
2019-06-26T15:45:36.758Z,34.60
2019-06-26T15:48:05.830Z,34.60
2019-06-26T15:50:34.890Z,34.80
2019-06-26T15:53:04.815Z,34.80
2019-06-26T15:55:33.897Z,34.70
2019-06-26T15:58:03.053Z,34.70
2019-06-26T16:00:32.156Z,34.70
2019-06-26T16:03:01.304Z,34.70
2019-06-26T16:05:30.386Z,34.80
2019-06-26T16:07:59.482Z,34.80
2019-06-26T16:10:28.487Z,34.80
2019-06-26T16:12:57.546Z,34.80
2019-06-26T16:15:26.719Z,34.80
2019-06-26T16:18:17.930Z,34.80
2019-06-26T16:20:46.945Z,34.80
2019-06-26T16:23:16.095Z,34.80
2019-06-26T16:25:45.147Z,34.80
2019-06-26T16:28:14.185Z,34.70
2019-06-26T16:30:43.263Z,34.70
2019-06-26T16:33:12.317Z,34.60
2019-06-26T16:35:41.397Z,34.60
2019-06-26T16:38:10.374Z,34.60
2019-06-26T16:40:39.350Z,34.60
2019-06-26T16:43:08.365Z,34.60
2019-06-26T16:45:37.351Z,34.60
2019-06-26T16:48:06.430Z,34.50
2019-06-26T16:50:35.527Z,34.40
2019-06-26T16:53:04.659Z,34.40
2019-06-26T16:55:33.783Z,34.30
2019-06-26T16:58:02.837Z,34.20
2019-06-26T17:00:31.971Z,34.10
2019-06-26T17:03:01.035Z,34.00
2019-06-26T17:05:30.126Z,34.00
2019-06-26T17:07:59.213Z,33.90
2019-06-26T17:10:28.368Z,33.80
2019-06-26T17:12:57.341Z,33.80
2019-06-26T17:15:26.478Z,33.70
2019-06-26T17:17:55.410Z,33.60
2019-06-26T17:20:24.604Z,33.50
2019-06-26T17:23:05.306Z,33.40
2019-06-26T17:25:24.544Z,33.40
2019-06-26T17:27:53.718Z,33.30
2019-06-26T17:30:22.883Z,33.20
2019-06-26T17:32:51.887Z,33.10
2019-06-26T17:35:20.970Z,33.00
2019-06-26T17:37:50.044Z,33.00
2019-06-26T17:40:19.127Z,32.90
2019-06-26T17:42:48.287Z,32.90
2019-06-26T17:45:17.818Z,32.80
2019-06-26T17:47:46.874Z,32.60
2019-06-26T17:50:16.879Z,32.60
2019-06-26T17:52:46.014Z,32.40
2019-06-26T17:55:15.182Z,32.30
2019-06-26T17:57:47.416Z,32.20
2019-06-26T18:00:15.355Z,32.20
2019-06-26T18:02:44.412Z,32.10
2019-06-26T18:05:13.561Z,32.10
2019-06-26T18:07:42.572Z,32.00
2019-06-26T18:10:11.924Z,31.90
2019-06-26T18:12:41.095Z,31.90
2019-06-26T18:15:10.160Z,31.80
2019-06-26T18:17:39.075Z,31.70
2019-06-26T18:20:08.630Z,31.60
2019-06-26T18:22:37.781Z,31.60
2019-06-26T18:25:07.055Z,31.50
2019-06-26T18:27:36.127Z,31.40
2019-06-26T18:30:06.009Z,31.30
2019-06-26T18:32:35.041Z,31.20
2019-06-26T18:35:04.222Z,31.10
2019-06-26T18:37:33.282Z,31.00
2019-06-26T18:40:02.323Z,31.00
2019-06-26T18:42:31.306Z,30.90
2019-06-26T18:45:00.350Z,30.80
2019-06-26T18:47:29.407Z,30.70
2019-06-26T18:49:58.587Z,30.60
2019-06-26T18:52:27.598Z,30.60
2019-06-26T18:54:56.585Z,30.50
2019-06-26T18:57:25.735Z,30.50
2019-06-26T18:59:54.719Z,30.40
2019-06-26T19:02:23.782Z,30.30
2019-06-26T19:04:54.238Z,30.30
2019-06-26T19:07:23.491Z,30.20
2019-06-26T19:09:52.573Z,30.20
2019-06-26T19:12:21.751Z,30.10
2019-06-26T19:14:50.718Z,30.10
2019-06-26T19:17:19.798Z,30.00
2019-06-26T19:19:48.789Z,29.90
2019-06-26T19:22:17.882Z,29.90
2019-06-26T19:24:46.870Z,29.80
2019-06-26T19:27:15.854Z,29.80
2019-06-26T19:29:44.867Z,29.80
2019-06-26T19:32:13.886Z,29.70
2019-06-26T19:34:42.937Z,29.70
2019-06-26T19:37:12.024Z,29.60
2019-06-26T19:39:41.114Z,29.60
2019-06-26T19:42:10.261Z,29.50
2019-06-26T19:44:39.400Z,29.50
2019-06-26T19:47:08.500Z,29.50
2019-06-26T19:49:37.558Z,29.40
2019-06-26T19:52:06.710Z,29.40
2019-06-26T19:54:35.803Z,29.30
2019-06-26T19:57:05.165Z,29.30
2019-06-26T19:59:34.265Z,29.20
2019-06-26T20:02:03.351Z,29.20
2019-06-26T20:04:32.467Z,29.20
2019-06-26T20:07:01.491Z,29.10
2019-06-26T20:09:30.617Z,29.10
2019-06-26T20:11:59.714Z,29.00
2019-06-26T20:14:28.753Z,29.00
2019-06-26T20:16:57.803Z,29.00
2019-06-26T20:19:26.796Z,29.00
2019-06-26T20:21:55.911Z,28.90
2019-06-26T20:24:25.047Z,28.90
2019-06-26T20:26:54.183Z,28.90
2019-06-26T20:29:23.271Z,28.80
2019-06-26T20:31:52.341Z,28.80
2019-06-26T20:34:21.407Z,28.70
2019-06-26T20:36:50.568Z,28.70
2019-06-26T20:39:19.614Z,28.70
2019-06-26T20:41:48.689Z,28.60
2019-06-26T20:44:17.777Z,28.60
2019-06-26T20:46:46.847Z,28.60
2019-06-26T20:49:15.903Z,28.60
2019-06-26T20:51:44.932Z,28.50
2019-06-26T20:54:13.844Z,28.50
2019-06-26T20:56:42.994Z,28.50
2019-06-26T20:59:11.929Z,28.50
2019-06-26T21:01:41.007Z,28.40
2019-06-26T21:04:10.161Z,28.40
2019-06-26T21:06:39.195Z,28.30
2019-06-26T21:09:08.512Z,28.30
2019-06-26T21:11:37.671Z,28.30
2019-06-26T21:14:06.710Z,28.30
2019-06-26T21:16:35.699Z,28.30
2019-06-26T21:19:04.731Z,28.30
2019-06-26T21:21:33.775Z,28.30
2019-06-26T21:24:02.838Z,28.20
2019-06-26T21:26:31.923Z,28.20
2019-06-26T21:29:01.060Z,28.20
2019-06-26T21:31:30.146Z,28.20
2019-06-26T21:33:59.269Z,28.10
2019-06-26T21:36:28.356Z,28.10
2019-06-26T21:38:57.487Z,28.10
2019-06-26T21:41:26.599Z,28.10
2019-06-26T21:43:55.673Z,28.10
2019-06-26T21:46:24.661Z,28.10
2019-06-26T21:48:53.736Z,28.00
2019-06-26T21:51:22.756Z,28.00
2019-06-26T21:53:51.763Z,28.00
2019-06-26T21:56:20.947Z,28.00
2019-06-26T21:58:49.992Z,28.00
2019-06-26T22:01:19.140Z,27.90
2019-06-26T22:03:48.286Z,27.90
2019-06-26T22:06:17.459Z,27.90
2019-06-26T22:08:46.472Z,27.90
2019-06-26T22:11:15.615Z,27.80
2019-06-26T22:13:44.822Z,27.80
2019-06-26T22:16:13.909Z,27.80
2019-06-26T22:18:43.066Z,27.80
2019-06-26T22:21:12.149Z,27.80
2019-06-26T22:23:41.238Z,27.70
2019-06-26T22:26:13.966Z,27.70
2019-06-26T22:28:41.056Z,27.70
2019-06-26T22:31:10.178Z,27.70
2019-06-26T22:33:39.270Z,27.70
2019-06-26T22:36:08.407Z,27.70
2019-06-26T22:38:37.448Z,27.60
2019-06-26T22:41:06.500Z,27.60
2019-06-26T22:43:35.558Z,27.60
2019-06-26T22:46:04.618Z,27.60
2019-06-26T22:48:33.602Z,27.50
2019-06-26T22:51:02.781Z,27.50
2019-06-26T22:53:31.754Z,27.50
2019-06-26T22:56:07.849Z,27.40
2019-06-26T22:58:31.490Z,27.40
2019-06-26T23:01:00.574Z,27.40
2019-06-26T23:03:29.604Z,27.40
2019-06-26T23:05:58.758Z,27.40
2019-06-26T23:08:27.830Z,27.30
2019-06-26T23:10:56.928Z,27.30
2019-06-26T23:13:25.930Z,27.30
2019-06-26T23:15:55.106Z,27.30
2019-06-26T23:18:24.083Z,27.30
2019-06-26T23:20:53.087Z,27.30
2019-06-26T23:23:22.097Z,27.20
2019-06-26T23:25:51.086Z,27.20
2019-06-26T23:28:20.148Z,27.20
2019-06-26T23:30:49.215Z,27.20
2019-06-26T23:33:18.239Z,27.20
2019-06-26T23:35:47.323Z,27.10
2019-06-26T23:38:16.329Z,27.10
2019-06-26T23:40:45.420Z,27.10
2019-06-26T23:43:14.407Z,27.10
2019-06-26T23:45:43.887Z,27.00
2019-06-26T23:48:12.899Z,27.10
2019-06-26T23:50:41.995Z,27.00
2019-06-26T23:53:11.181Z,27.00
2019-06-26T23:55:40.318Z,27.00
2019-06-26T23:58:09.386Z,27.00
